sensor_id;sensor_type;location;lat;lon;timestamp;P1;durP1;ratioP1;P2;durP2;ratioP2
57247;SDS011;55809;46.618;10.764;2023-11-18T00:00:58;0.10;;;0.08;;
57247;SDS011;55809;46.618;10.764;2023-11-18T00:03:25;0.00;;;0.00;;
57247;SDS011;55809;46.618;10.764;2023-11-18T00:05:52;0.00;;;0.00;;
57247;SDS011;55809;46.618;10.764;2023-11-18T00:08:19;0.20;;;0.08;;
57247;SDS011;55809;46.618;10.764;2023-11-18T00:10:47;0.20;;;0.00;;
57247;SDS011;55809;46.618;10.764;2023-11-18T00:13:14;0.00;;;0.00;;
57247;SDS011;55809;46.618;10.764;2023-11-18T00:15:41;1.55;;;0.00;;
57247;SDS011;55809;46.618;10.764;2023-11-18T00:18:11;0.30;;;0.00;;
57247;SDS011;55809;46.618;10.764;2023-11-18T00:20:37;0.10;;;0.00;;
57247;SDS011;55809;46.618;10.764;2023-11-18T00:23:04;0.03;;;0.03;;
57247;SDS011;55809;46.618;10.764;2023-11-18T00:25:31;0.28;;;0.00;;
57247;SDS011;55809;46.618;10.764;2023-11-18T00:28:01;0.00;;;0.00;;
57247;SDS011;55809;46.618;10.764;2023-11-18T00:30:28;0.32;;;0.00;;
57247;SDS011;55809;46.618;10.764;2023-11-18T00:32:55;0.00;;;0.00;;
57247;SDS011;55809;46.618;10.764;2023-11-18T00:35:22;0.15;;;0.00;;
57247;SDS011;55809;46.618;10.764;2023-11-18T00:37:49;0.00;;;0.00;;
57247;SDS011;55809;46.618;10.764;2023-11-18T00:40:16;0.00;;;0.00;;
57247;SDS011;55809;46.618;10.764;2023-11-18T00:42:43;0.90;;;0.10;;
57247;SDS011;55809;46.618;10.764;2023-11-18T00:45:11;0.00;;;0.00;;
57247;SDS011;55809;46.618;10.764;2023-11-18T00:47:38;0.00;;;0.00;;
57247;SDS011;55809;46.618;10.764;2023-11-18T00:50:06;0.00;;;0.00;;
57247;SDS011;55809;46.618;10.764;2023-11-18T00:52:34;0.00;;;0.00;;
57247;SDS011;55809;46.618;10.764;2023-11-18T00:55:04;0.03;;;0.00;;
57247;SDS011;55809;46.618;10.764;2023-11-18T00:57:32;0.00;;;0.00;;
57247;SDS011;55809;46.618;10.764;2023-11-18T00:59:59;0.28;;;0.17;;
57247;SDS011;55809;46.618;10.764;2023-11-18T01:02:27;0.40;;;0.00;;
57247;SDS011;55809;46.618;10.764;2023-11-18T01:04:54;0.00;;;0.00;;
57247;SDS011;55809;46.618;10.764;2023-11-18T01:07:20;0.52;;;0.05;;
57247;SDS011;55809;46.618;10.764;2023-11-18T01:09:47;0.45;;;0.00;;
57247;SDS011;55809;46.618;10.764;2023-11-18T01:12:14;0.00;;;0.00;;
57247;SDS011;55809;46.618;10.764;2023-11-18T01:14:41;0.30;;;0.10;;
57247;SDS011;55809;46.618;10.764;2023-11-18T01:17:08;0.45;;;0.10;;
57247;SDS011;55809;46.618;10.764;2023-11-18T01:19:37;0.73;;;0.10;;
57247;SDS011;55809;46.618;10.764;2023-11-18T01:22:04;0.10;;;0.00;;
57247;SDS011;55809;46.618;10.764;2023-11-18T01:24:31;0.00;;;0.00;;
57247;SDS011;55809;46.618;10.764;2023-11-18T01:26:58;0.00;;;0.00;;
57247;SDS011;55809;46.618;10.764;2023-11-18T01:29:25;0.00;;;0.00;;
57247;SDS011;55809;46.618;10.764;2023-11-18T01:31:52;0.22;;;0.00;;
57247;SDS011;55809;46.618;10.764;2023-11-18T01:34:20;0.05;;;0.00;;
57247;SDS011;55809;46.618;10.764;2023-11-18T01:36:49;0.22;;;0.00;;
57247;SDS011;55809;46.618;10.764;2023-11-18T01:39:16;0.70;;;0.00;;
57247;SDS011;55809;46.618;10.764;2023-11-18T01:41:44;0.00;;;0.00;;
57247;SDS011;55809;46.618;10.764;2023-11-18T01:44:11;0.00;;;0.00;;
57247;SDS011;55809;46.618;10.764;2023-11-18T01:46:40;0.20;;;0.00;;
57247;SDS011;55809;46.618;10.764;2023-11-18T01:49:10;0.08;;;0.00;;
57247;SDS011;55809;46.618;10.764;2023-11-18T01:51:38;0.05;;;0.00;;
57247;SDS011;55809;46.618;10.764;2023-11-18T01:54:07;0.00;;;0.00;;
57247;SDS011;55809;46.618;10.764;2023-11-18T01:56:40;0.20;;;0.00;;
57247;SDS011;55809;46.618;10.764;2023-11-18T01:59:09;0.17;;;0.10;;
57247;SDS011;55809;46.618;10.764;2023-11-18T02:01:43;0.32;;;0.10;;
57247;SDS011;55809;46.618;10.764;2023-11-18T02:04:13;0.00;;;0.00;;
57247;SDS011;55809;46.618;10.764;2023-11-18T02:06:40;0.00;;;0.00;;
57247;SDS011;55809;46.618;10.764;2023-11-18T02:09:09;1.20;;;0.20;;
57247;SDS011;55809;46.618;10.764;2023-11-18T02:11:36;0.00;;;0.00;;
57247;SDS011;55809;46.618;10.764;2023-11-18T02:14:07;0.00;;;0.00;;
57247;SDS011;55809;46.618;10.764;2023-11-18T02:16:36;0.30;;;0.00;;
57247;SDS011;55809;46.618;10.764;2023-11-18T02:19:04;0.20;;;0.10;;
57247;SDS011;55809;46.618;10.764;2023-11-18T02:21:42;0.30;;;0.05;;
57247;SDS011;55809;46.618;10.764;2023-11-18T02:24:13;0.55;;;0.00;;
57247;SDS011;55809;46.618;10.764;2023-11-18T02:26:52;0.00;;;0.00;;
57247;SDS011;55809;46.618;10.764;2023-11-18T02:29:20;0.70;;;0.03;;
57247;SDS011;55809;46.618;10.764;2023-11-18T02:31:47;0.25;;;0.10;;
57247;SDS011;55809;46.618;10.764;2023-11-18T02:34:19;0.25;;;0.00;;
57247;SDS011;55809;46.618;10.764;2023-11-18T02:36:52;0.43;;;0.03;;
57247;SDS011;55809;46.618;10.764;2023-11-18T02:39:21;0.00;;;0.00;;
57247;SDS011;55809;46.618;10.764;2023-11-18T02:41:55;0.00;;;0.00;;
57247;SDS011;55809;46.618;10.764;2023-11-18T02:44:24;0.00;;;0.00;;
57247;SDS011;55809;46.618;10.764;2023-11-18T02:46:50;0.08;;;0.00;;
57247;SDS011;55809;46.618;10.764;2023-11-18T02:49:18;0.43;;;0.20;;
57247;SDS011;55809;46.618;10.764;2023-11-18T02:51:44;0.00;;;0.00;;
57247;SDS011;55809;46.618;10.764;2023-11-18T02:54:12;0.20;;;0.00;;
57247;SDS011;55809;46.618;10.764;2023-11-18T02:56:41;0.38;;;0.10;;
57247;SDS011;55809;46.618;10.764;2023-11-18T02:59:09;0.10;;;0.00;;
57247;SDS011;55809;46.618;10.764;2023-11-18T03:01:36;0.00;;;0.00;;
57247;SDS011;55809;46.618;10.764;2023-11-18T03:04:04;0.20;;;0.10;;
57247;SDS011;55809;46.618;10.764;2023-11-18T03:06:30;0.00;;;0.00;;
57247;SDS011;55809;46.618;10.764;2023-11-18T03:08:57;0.10;;;0.03;;
57247;SDS011;55809;46.618;10.764;2023-11-18T03:11:24;0.05;;;0.00;;
57247;SDS011;55809;46.618;10.764;2023-11-18T03:13:54;0.08;;;0.00;;
57247;SDS011;55809;46.618;10.764;2023-11-18T03:16:23;1.10;;;0.10;;
57247;SDS011;55809;46.618;10.764;2023-11-18T03:18:50;0.00;;;0.00;;
57247;SDS011;55809;46.618;10.764;2023-11-18T03:21:17;0.00;;;0.00;;
57247;SDS011;55809;46.618;10.764;2023-11-18T03:23:45;0.00;;;0.00;;
57247;SDS011;55809;46.618;10.764;2023-11-18T03:26:12;0.10;;;0.00;;
57247;SDS011;55809;46.618;10.764;2023-11-18T03:28:40;0.40;;;0.00;;
57247;SDS011;55809;46.618;10.764;2023-11-18T03:31:07;0.10;;;0.00;;
57247;SDS011;55809;46.618;10.764;2023-11-18T03:33:35;0.93;;;0.00;;
57247;SDS011;55809;46.618;10.764;2023-11-18T03:36:02;0.00;;;0.00;;
57247;SDS011;55809;46.618;10.764;2023-11-18T03:38:30;0.00;;;0.00;;
57247;SDS011;55809;46.618;10.764;2023-11-18T03:40:57;0.98;;;0.10;;
57247;SDS011;55809;46.618;10.764;2023-11-18T03:43:24;0.00;;;0.00;;
57247;SDS011;55809;46.618;10.764;2023-11-18T03:45:51;0.65;;;0.00;;
57247;SDS011;55809;46.618;10.764;2023-11-18T03:50:49;0.00;;;0.00;;
57247;SDS011;55809;46.618;10.764;2023-11-18T03:53:16;0.80;;;0.00;;
57247;SDS011;55809;46.618;10.764;2023-11-18T03:55:43;0.00;;;0.00;;
57247;SDS011;55809;46.618;10.764;2023-11-18T03:58:10;0.75;;;0.10;;
57247;SDS011;55809;46.618;10.764;2023-11-18T04:00:37;0.00;;;0.00;;
57247;SDS011;55809;46.618;10.764;2023-11-18T04:03:04;0.10;;;0.08;;
57247;SDS011;55809;46.618;10.764;2023-11-18T04:05:32;0.00;;;0.00;;
57247;SDS011;55809;46.618;10.764;2023-11-18T04:08:01;0.20;;;0.00;;
57247;SDS011;55809;46.618;10.764;2023-11-18T04:10:28;0.52;;;0.10;;
57247;SDS011;55809;46.618;10.764;2023-11-18T04:12:55;0.70;;;0.10;;
57247;SDS011;55809;46.618;10.764;2023-11-18T04:15:22;1.75;;;0.10;;
57247;SDS011;55809;46.618;10.764;2023-11-18T04:17:49;0.08;;;0.08;;
57247;SDS011;55809;46.618;10.764;2023-11-18T04:20:17;1.30;;;0.00;;
57247;SDS011;55809;46.618;10.764;2023-11-18T04:22:44;0.47;;;0.10;;
57247;SDS011;55809;46.618;10.764;2023-11-18T04:25:12;0.17;;;0.00;;
57247;SDS011;55809;46.618;10.764;2023-11-18T04:27:40;0.10;;;0.10;;
57247;SDS011;55809;46.618;10.764;2023-11-18T04:30:07;0.05;;;0.00;;
57247;SDS011;55809;46.618;10.764;2023-11-18T04:32:35;0.10;;;0.10;;
57247;SDS011;55809;46.618;10.764;2023-11-18T04:35:02;0.22;;;0.10;;
57247;SDS011;55809;46.618;10.764;2023-11-18T04:37:32;0.00;;;0.00;;
57247;SDS011;55809;46.618;10.764;2023-11-18T04:39:59;0.32;;;0.00;;
57247;SDS011;55809;46.618;10.764;2023-11-18T04:42:27;0.30;;;0.08;;
57247;SDS011;55809;46.618;10.764;2023-11-18T04:44:55;0.60;;;0.35;;
57247;SDS011;55809;46.618;10.764;2023-11-18T04:47:22;0.00;;;0.00;;
57247;SDS011;55809;46.618;10.764;2023-11-18T04:49:50;1.15;;;0.17;;
57247;SDS011;55809;46.618;10.764;2023-11-18T04:52:18;0.98;;;0.15;;
57247;SDS011;55809;46.618;10.764;2023-11-18T04:54:44;0.52;;;0.13;;
57247;SDS011;55809;46.618;10.764;2023-11-18T04:57:13;0.13;;;0.00;;
57247;SDS011;55809;46.618;10.764;2023-11-18T04:59:42;0.22;;;0.10;;
57247;SDS011;55809;46.618;10.764;2023-11-18T05:02:09;0.00;;;0.00;;
57247;SDS011;55809;46.618;10.764;2023-11-18T05:04:36;0.50;;;0.10;;
57247;SDS011;55809;46.618;10.764;2023-11-18T05:07:03;0.17;;;0.10;;
57247;SDS011;55809;46.618;10.764;2023-11-18T05:09:31;0.57;;;0.10;;
57247;SDS011;55809;46.618;10.764;2023-11-18T05:11:59;0.30;;;0.10;;
57247;SDS011;55809;46.618;10.764;2023-11-18T05:14:26;0.20;;;0.10;;
57247;SDS011;55809;46.618;10.764;2023-11-18T05:16:55;0.15;;;0.05;;
57247;SDS011;55809;46.618;10.764;2023-11-18T05:19:22;0.38;;;0.03;;
57247;SDS011;55809;46.618;10.764;2023-11-18T05:21:49;0.38;;;0.20;;
57247;SDS011;55809;46.618;10.764;2023-11-18T05:24:16;0.30;;;0.10;;
57247;SDS011;55809;46.618;10.764;2023-11-18T05:26:43;0.63;;;0.00;;
57247;SDS011;55809;46.618;10.764;2023-11-18T05:29:10;0.03;;;0.00;;
57247;SDS011;55809;46.618;10.764;2023-11-18T05:31:41;0.65;;;0.10;;
57247;SDS011;55809;46.618;10.764;2023-11-18T05:34:10;1.75;;;0.10;;
57247;SDS011;55809;46.618;10.764;2023-11-18T05:36:37;0.00;;;0.00;;
57247;SDS011;55809;46.618;10.764;2023-11-18T05:39:05;0.32;;;0.15;;
57247;SDS011;55809;46.618;10.764;2023-11-18T05:41:34;1.10;;;0.10;;
57247;SDS011;55809;46.618;10.764;2023-11-18T05:44:04;0.47;;;0.08;;
57247;SDS011;55809;46.618;10.764;2023-11-18T05:46:33;0.10;;;0.10;;
57247;SDS011;55809;46.618;10.764;2023-11-18T05:49:01;0.25;;;0.10;;
57247;SDS011;55809;46.618;10.764;2023-11-18T05:51:34;1.60;;;0.25;;
57247;SDS011;55809;46.618;10.764;2023-11-18T05:54:01;0.20;;;0.03;;
57247;SDS011;55809;46.618;10.764;2023-11-18T05:56:28;0.30;;;0.10;;
57247;SDS011;55809;46.618;10.764;2023-11-18T05:58:55;0.10;;;0.10;;
57247;SDS011;55809;46.618;10.764;2023-11-18T06:01:22;0.10;;;0.03;;
57247;SDS011;55809;46.618;10.764;2023-11-18T06:03:49;1.48;;;0.20;;
57247;SDS011;55809;46.618;10.764;2023-11-18T06:06:16;1.42;;;0.20;;
57247;SDS011;55809;46.618;10.764;2023-11-18T06:08:44;0.00;;;0.00;;
57247;SDS011;55809;46.618;10.764;2023-11-18T06:11:13;0.30;;;0.10;;
57247;SDS011;55809;46.618;10.764;2023-11-18T06:13:41;0.22;;;0.10;;
57247;SDS011;55809;46.618;10.764;2023-11-18T06:16:12;0.60;;;0.17;;
57247;SDS011;55809;46.618;10.764;2023-11-18T06:18:41;0.32;;;0.10;;
57247;SDS011;55809;46.618;10.764;2023-11-18T06:21:11;0.75;;;0.10;;
57247;SDS011;55809;46.618;10.764;2023-11-18T06:23:39;0.88;;;0.20;;
57247;SDS011;55809;46.618;10.764;2023-11-18T06:26:08;0.28;;;0.10;;
57247;SDS011;55809;46.618;10.764;2023-11-18T06:28:37;1.70;;;0.13;;
57247;SDS011;55809;46.618;10.764;2023-11-18T06:31:05;1.15;;;0.13;;
57247;SDS011;55809;46.618;10.764;2023-11-18T06:33:36;0.75;;;0.20;;
57247;SDS011;55809;46.618;10.764;2023-11-18T06:36:05;0.52;;;0.10;;
57247;SDS011;55809;46.618;10.764;2023-11-18T06:38:33;1.25;;;0.22;;
57247;SDS011;55809;46.618;10.764;2023-11-18T06:41:00;1.85;;;0.30;;
57247;SDS011;55809;46.618;10.764;2023-11-18T06:43:31;1.65;;;0.75;;
57247;SDS011;55809;46.618;10.764;2023-11-18T06:46:16;3.13;;;1.25;;
57247;SDS011;55809;46.618;10.764;2023-11-18T06:48:46;10.07;;;4.63;;
57247;SDS011;55809;46.618;10.764;2023-11-18T06:51:14;11.50;;;5.72;;
57247;SDS011;55809;46.618;10.764;2023-11-18T06:53:41;8.13;;;3.58;;
57247;SDS011;55809;46.618;10.764;2023-11-18T06:56:09;4.53;;;1.80;;
57247;SDS011;55809;46.618;10.764;2023-11-18T06:58:38;1.63;;;1.00;;
57247;SDS011;55809;46.618;10.764;2023-11-18T07:01:05;0.77;;;0.60;;
57247;SDS011;55809;46.618;10.764;2023-11-18T07:03:33;1.58;;;0.40;;
57247;SDS011;55809;46.618;10.764;2023-11-18T07:06:00;1.98;;;0.43;;
57247;SDS011;55809;46.618;10.764;2023-11-18T07:08:27;1.02;;;0.52;;
57247;SDS011;55809;46.618;10.764;2023-11-18T07:10:53;1.88;;;0.80;;
57247;SDS011;55809;46.618;10.764;2023-11-18T07:13:21;0.65;;;0.38;;
57247;SDS011;55809;46.618;10.764;2023-11-18T07:15:50;0.90;;;0.50;;
57247;SDS011;55809;46.618;10.764;2023-11-18T07:18:19;1.38;;;0.50;;
57247;SDS011;55809;46.618;10.764;2023-11-18T07:20:47;1.83;;;0.40;;
57247;SDS011;55809;46.618;10.764;2023-11-18T07:23:14;1.48;;;0.40;;
57247;SDS011;55809;46.618;10.764;2023-11-18T07:25:42;1.10;;;0.35;;
57247;SDS011;55809;46.618;10.764;2023-11-18T07:28:09;0.85;;;0.25;;
57247;SDS011;55809;46.618;10.764;2023-11-18T07:30:36;1.50;;;0.60;;
57247;SDS011;55809;46.618;10.764;2023-11-18T07:33:05;1.27;;;0.40;;
57247;SDS011;55809;46.618;10.764;2023-11-18T07:35:33;0.77;;;0.50;;
57247;SDS011;55809;46.618;10.764;2023-11-18T07:38:01;1.70;;;1.00;;
57247;SDS011;55809;46.618;10.764;2023-11-18T07:40:28;1.75;;;0.63;;
57247;SDS011;55809;46.618;10.764;2023-11-18T07:42:57;1.23;;;0.40;;
57247;SDS011;55809;46.618;10.764;2023-11-18T07:45:26;2.33;;;0.50;;
57247;SDS011;55809;46.618;10.764;2023-11-18T07:47:54;0.13;;;0.13;;
57247;SDS011;55809;46.618;10.764;2023-11-18T07:50:23;2.05;;;0.50;;
57247;SDS011;55809;46.618;10.764;2023-11-18T07:52:50;2.38;;;0.40;;
57247;SDS011;55809;46.618;10.764;2023-11-18T07:55:16;0.85;;;0.30;;
57247;SDS011;55809;46.618;10.764;2023-11-18T07:57:43;0.68;;;0.25;;
57247;SDS011;55809;46.618;10.764;2023-11-18T08:00:11;0.95;;;0.30;;
57247;SDS011;55809;46.618;10.764;2023-11-18T08:02:40;1.53;;;0.33;;
57247;SDS011;55809;46.618;10.764;2023-11-18T08:05:07;0.70;;;0.28;;
57247;SDS011;55809;46.618;10.764;2023-11-18T08:07:37;0.90;;;0.47;;
57247;SDS011;55809;46.618;10.764;2023-11-18T08:10:05;2.03;;;0.60;;
57247;SDS011;55809;46.618;10.764;2023-11-18T08:12:38;0.10;;;0.10;;
57247;SDS011;55809;46.618;10.764;2023-11-18T08:15:05;0.77;;;0.28;;
57247;SDS011;55809;46.618;10.764;2023-11-18T08:17:34;1.38;;;0.20;;
57247;SDS011;55809;46.618;10.764;2023-11-18T08:20:01;0.55;;;0.20;;
57247;SDS011;55809;46.618;10.764;2023-11-18T08:22:32;0.35;;;0.20;;
57247;SDS011;55809;46.618;10.764;2023-11-18T08:25:01;1.08;;;0.28;;
57247;SDS011;55809;46.618;10.764;2023-11-18T08:27:33;0.47;;;0.25;;
57247;SDS011;55809;46.618;10.764;2023-11-18T08:30:01;0.75;;;0.40;;
57247;SDS011;55809;46.618;10.764;2023-11-18T08:32:30;1.17;;;0.30;;
57247;SDS011;55809;46.618;10.764;2023-11-18T08:34:58;1.27;;;0.30;;
57247;SDS011;55809;46.618;10.764;2023-11-18T08:37:25;2.35;;;0.40;;
57247;SDS011;55809;46.618;10.764;2023-11-18T08:39:53;0.63;;;0.40;;
57247;SDS011;55809;46.618;10.764;2023-11-18T08:42:21;0.98;;;0.25;;
57247;SDS011;55809;46.618;10.764;2023-11-18T08:44:49;3.17;;;0.30;;
57247;SDS011;55809;46.618;10.764;2023-11-18T08:47:16;1.52;;;0.65;;
57247;SDS011;55809;46.618;10.764;2023-11-18T08:49:44;0.47;;;0.30;;
57247;SDS011;55809;46.618;10.764;2023-11-18T08:52:11;0.55;;;0.30;;
57247;SDS011;55809;46.618;10.764;2023-11-18T08:54:38;0.60;;;0.20;;
57247;SDS011;55809;46.618;10.764;2023-11-18T08:57:27;0.60;;;0.40;;
57247;SDS011;55809;46.618;10.764;2023-11-18T09:00:11;1.13;;;0.30;;
57247;SDS011;55809;46.618;10.764;2023-11-18T09:03:00;1.90;;;0.30;;
57247;SDS011;55809;46.618;10.764;2023-11-18T09:05:30;0.82;;;0.20;;
57247;SDS011;55809;46.618;10.764;2023-11-18T09:07:57;0.63;;;0.25;;
57247;SDS011;55809;46.618;10.764;2023-11-18T09:10:25;1.52;;;0.35;;
57247;SDS011;55809;46.618;10.764;2023-11-18T09:12:54;1.05;;;0.40;;
57247;SDS011;55809;46.618;10.764;2023-11-18T09:15:22;4.28;;;1.90;;
57247;SDS011;55809;46.618;10.764;2023-11-18T09:17:49;1.77;;;0.82;;
57247;SDS011;55809;46.618;10.764;2023-11-18T09:20:16;2.10;;;1.00;;
57247;SDS011;55809;46.618;10.764;2023-11-18T09:22:47;0.95;;;0.63;;
57247;SDS011;55809;46.618;10.764;2023-11-18T09:25:14;0.73;;;0.32;;
57247;SDS011;55809;46.618;10.764;2023-11-18T09:27:42;0.43;;;0.20;;
57247;SDS011;55809;46.618;10.764;2023-11-18T09:30:11;0.28;;;0.15;;
57247;SDS011;55809;46.618;10.764;2023-11-18T09:32:40;1.60;;;0.35;;
57247;SDS011;55809;46.618;10.764;2023-11-18T09:35:08;0.88;;;0.15;;
57247;SDS011;55809;46.618;10.764;2023-11-18T09:37:37;2.15;;;1.02;;
57247;SDS011;55809;46.618;10.764;2023-11-18T09:40:06;1.52;;;0.50;;
57247;SDS011;55809;46.618;10.764;2023-11-18T09:42:37;1.33;;;0.73;;
57247;SDS011;55809;46.618;10.764;2023-11-18T09:45:05;0.82;;;0.40;;
57247;SDS011;55809;46.618;10.764;2023-11-18T09:47:42;1.23;;;0.20;;
57247;SDS011;55809;46.618;10.764;2023-11-18T09:50:12;0.70;;;0.25;;
57247;SDS011;55809;46.618;10.764;2023-11-18T09:52:47;0.70;;;0.20;;
57247;SDS011;55809;46.618;10.764;2023-11-18T09:55:21;0.70;;;0.20;;
57247;SDS011;55809;46.618;10.764;2023-11-18T09:57:59;0.90;;;0.20;;
57247;SDS011;55809;46.618;10.764;2023-11-18T10:00:38;2.47;;;0.30;;
57247;SDS011;55809;46.618;10.764;2023-11-18T10:03:08;0.32;;;0.20;;
57247;SDS011;55809;46.618;10.764;2023-11-18T10:05:40;0.60;;;0.28;;
57247;SDS011;55809;46.618;10.764;2023-11-18T10:08:08;0.73;;;0.20;;
57247;SDS011;55809;46.618;10.764;2023-11-18T10:10:35;0.15;;;0.10;;
57247;SDS011;55809;46.618;10.764;2023-11-18T10:13:02;1.33;;;0.32;;
57247;SDS011;55809;46.618;10.764;2023-11-18T10:15:33;1.23;;;0.28;;
57247;SDS011;55809;46.618;10.764;2023-11-18T10:18:02;0.73;;;0.20;;
57247;SDS011;55809;46.618;10.764;2023-11-18T10:20:46;0.77;;;0.05;;
57247;SDS011;55809;46.618;10.764;2023-11-18T10:23:16;0.47;;;0.10;;
57247;SDS011;55809;46.618;10.764;2023-11-18T10:25:46;0.30;;;0.10;;
57247;SDS011;55809;46.618;10.764;2023-11-18T10:28:23;0.50;;;0.10;;
57247;SDS011;55809;46.618;10.764;2023-11-18T10:30:52;1.70;;;0.38;;
57247;SDS011;55809;46.618;10.764;2023-11-18T10:33:19;1.98;;;0.68;;
57247;SDS011;55809;46.618;10.764;2023-11-18T10:35:51;0.63;;;0.10;;
57247;SDS011;55809;46.618;10.764;2023-11-18T10:38:21;0.30;;;0.30;;
57247;SDS011;55809;46.618;10.764;2023-11-18T10:40:50;1.30;;;0.77;;
57247;SDS011;55809;46.618;10.764;2023-11-18T10:43:20;4.43;;;1.88;;
57247;SDS011;55809;46.618;10.764;2023-11-18T10:45:50;0.98;;;0.43;;
57247;SDS011;55809;46.618;10.764;2023-11-18T10:48:18;0.65;;;0.20;;
57247;SDS011;55809;46.618;10.764;2023-11-18T10:50:46;0.35;;;0.10;;
57247;SDS011;55809;46.618;10.764;2023-11-18T10:53:18;0.32;;;0.03;;
57247;SDS011;55809;46.618;10.764;2023-11-18T10:55:44;0.20;;;0.20;;
57247;SDS011;55809;46.618;10.764;2023-11-18T10:58:11;0.43;;;0.15;;
57247;SDS011;55809;46.618;10.764;2023-11-18T11:00:46;0.65;;;0.13;;
57247;SDS011;55809;46.618;10.764;2023-11-18T11:03:14;0.55;;;0.30;;
57247;SDS011;55809;46.618;10.764;2023-11-18T11:05:43;0.10;;;0.10;;
57247;SDS011;55809;46.618;10.764;2023-11-18T11:08:11;0.90;;;0.10;;
57247;SDS011;55809;46.618;10.764;2023-11-18T11:13:10;0.10;;;0.10;;
57247;SDS011;55809;46.618;10.764;2023-11-18T11:15:40;0.28;;;0.20;;
57247;SDS011;55809;46.618;10.764;2023-11-18T11:20:42;0.55;;;0.10;;
57247;SDS011;55809;46.618;10.764;2023-11-18T11:23:16;0.60;;;0.10;;
57247;SDS011;55809;46.618;10.764;2023-11-18T11:25:54;0.75;;;0.10;;
57247;SDS011;55809;46.618;10.764;2023-11-18T11:28:31;0.10;;;0.00;;
57247;SDS011;55809;46.618;10.764;2023-11-18T11:31:11;1.02;;;0.10;;
57247;SDS011;55809;46.618;10.764;2023-11-18T11:33:43;0.00;;;0.00;;
57247;SDS011;55809;46.618;10.764;2023-11-18T11:36:20;0.38;;;0.10;;
57247;SDS011;55809;46.618;10.764;2023-11-18T11:41:18;0.13;;;0.03;;
57247;SDS011;55809;46.618;10.764;2023-11-18T11:43:51;1.45;;;0.10;;
57247;SDS011;55809;46.618;10.764;2023-11-18T11:46:24;4.93;;;1.77;;
57247;SDS011;55809;46.618;10.764;2023-11-18T11:48:58;0.20;;;0.10;;
57247;SDS011;55809;46.618;10.764;2023-11-18T11:51:27;0.10;;;0.10;;
57247;SDS011;55809;46.618;10.764;2023-11-18T11:54:06;0.40;;;0.08;;
57247;SDS011;55809;46.618;10.764;2023-11-18T11:56:42;0.50;;;0.10;;
57247;SDS011;55809;46.618;10.764;2023-11-18T11:59:12;0.17;;;0.00;;
57247;SDS011;55809;46.618;10.764;2023-11-18T12:01:39;0.30;;;0.10;;
57247;SDS011;55809;46.618;10.764;2023-11-18T12:04:12;0.13;;;0.00;;
57247;SDS011;55809;46.618;10.764;2023-11-18T12:06:47;0.10;;;0.00;;
57247;SDS011;55809;46.618;10.764;2023-11-18T12:09:18;0.20;;;0.10;;
57247;SDS011;55809;46.618;10.764;2023-11-18T12:11:47;5.00;;;2.15;;
57247;SDS011;55809;46.618;10.764;2023-11-18T12:14:15;2.15;;;0.20;;
57247;SDS011;55809;46.618;10.764;2023-11-18T12:17:06;0.28;;;0.10;;
57247;SDS011;55809;46.618;10.764;2023-11-18T12:19:35;0.08;;;0.08;;
57247;SDS011;55809;46.618;10.764;2023-11-18T12:22:10;1.05;;;0.30;;
57247;SDS011;55809;46.618;10.764;2023-11-18T12:24:43;0.75;;;0.17;;
57247;SDS011;55809;46.618;10.764;2023-11-18T12:27:13;0.47;;;0.05;;
57247;SDS011;55809;46.618;10.764;2023-11-18T12:29:43;1.75;;;0.10;;
57247;SDS011;55809;46.618;10.764;2023-11-18T12:32:10;0.52;;;0.10;;
57247;SDS011;55809;46.618;10.764;2023-11-18T12:34:51;0.32;;;0.03;;
57247;SDS011;55809;46.618;10.764;2023-11-18T12:37:32;0.47;;;0.00;;
57247;SDS011;55809;46.618;10.764;2023-11-18T12:40:38;0.38;;;0.10;;
57247;SDS011;55809;46.618;10.764;2023-11-18T12:43:26;0.25;;;0.08;;
57247;SDS011;55809;46.618;10.764;2023-11-18T12:49:16;0.10;;;0.10;;
57247;SDS011;55809;46.618;10.764;2023-11-18T12:51:48;0.50;;;0.10;;
57247;SDS011;55809;46.618;10.764;2023-11-18T12:54:17;0.57;;;0.10;;
57247;SDS011;55809;46.618;10.764;2023-11-18T12:56:45;0.25;;;0.10;;
57247;SDS011;55809;46.618;10.764;2023-11-18T12:59:16;0.10;;;0.10;;
57247;SDS011;55809;46.618;10.764;2023-11-18T13:01:44;0.30;;;0.05;;
57247;SDS011;55809;46.618;10.764;2023-11-18T13:04:17;0.00;;;0.00;;
57247;SDS011;55809;46.618;10.764;2023-11-18T13:06:46;0.15;;;0.00;;
57247;SDS011;55809;46.618;10.764;2023-11-18T13:09:16;0.40;;;0.10;;
57247;SDS011;55809;46.618;10.764;2023-11-18T13:11:53;0.93;;;0.13;;
57247;SDS011;55809;46.618;10.764;2023-11-18T13:14:25;3.05;;;1.00;;
57247;SDS011;55809;46.618;10.764;2023-11-18T13:16:53;3.60;;;0.17;;
57247;SDS011;55809;46.618;10.764;2023-11-18T13:19:24;2.28;;;0.82;;
57247;SDS011;55809;46.618;10.764;2023-11-18T13:21:51;0.43;;;0.17;;
57247;SDS011;55809;46.618;10.764;2023-11-18T13:24:20;0.00;;;0.00;;
57247;SDS011;55809;46.618;10.764;2023-11-18T13:26:46;0.57;;;0.28;;
57247;SDS011;55809;46.618;10.764;2023-11-18T13:29:13;1.90;;;0.20;;
57247;SDS011;55809;46.618;10.764;2023-11-18T13:31:42;0.25;;;0.10;;
57247;SDS011;55809;46.618;10.764;2023-11-18T13:34:09;0.00;;;0.00;;
57247;SDS011;55809;46.618;10.764;2023-11-18T13:36:37;0.45;;;0.00;;
57247;SDS011;55809;46.618;10.764;2023-11-18T13:39:05;0.20;;;0.00;;
57247;SDS011;55809;46.618;10.764;2023-11-18T13:41:34;0.32;;;0.00;;
57247;SDS011;55809;46.618;10.764;2023-11-18T13:44:01;0.00;;;0.00;;
57247;SDS011;55809;46.618;10.764;2023-11-18T13:46:28;1.45;;;0.10;;
57247;SDS011;55809;46.618;10.764;2023-11-18T13:48:57;0.40;;;0.17;;
57247;SDS011;55809;46.618;10.764;2023-11-18T13:51:25;0.00;;;0.00;;
57247;SDS011;55809;46.618;10.764;2023-11-18T13:53:52;0.40;;;0.00;;
57247;SDS011;55809;46.618;10.764;2023-11-18T13:56:21;0.15;;;0.08;;
57247;SDS011;55809;46.618;10.764;2023-11-18T13:58:48;0.10;;;0.10;;
57247;SDS011;55809;46.618;10.764;2023-11-18T14:01:15;0.00;;;0.00;;
57247;SDS011;55809;46.618;10.764;2023-11-18T14:03:42;1.10;;;0.03;;
57247;SDS011;55809;46.618;10.764;2023-11-18T14:06:14;0.00;;;0.00;;
57247;SDS011;55809;46.618;10.764;2023-11-18T14:08:42;0.03;;;0.00;;
57247;SDS011;55809;46.618;10.764;2023-11-18T14:11:10;0.40;;;0.10;;
57247;SDS011;55809;46.618;10.764;2023-11-18T14:13:37;0.00;;;0.00;;
57247;SDS011;55809;46.618;10.764;2023-11-18T14:16:04;0.20;;;0.00;;
57247;SDS011;55809;46.618;10.764;2023-11-18T14:21:02;0.98;;;0.20;;
57247;SDS011;55809;46.618;10.764;2023-11-18T14:23:32;0.50;;;0.17;;
57247;SDS011;55809;46.618;10.764;2023-11-18T14:25:59;0.25;;;0.08;;
57247;SDS011;55809;46.618;10.764;2023-11-18T14:28:27;0.40;;;0.10;;
57247;SDS011;55809;46.618;10.764;2023-11-18T14:30:54;0.63;;;0.17;;
57247;SDS011;55809;46.618;10.764;2023-11-18T14:33:21;0.25;;;0.20;;
57247;SDS011;55809;46.618;10.764;2023-11-18T14:35:48;0.32;;;0.17;;
57247;SDS011;55809;46.618;10.764;2023-11-18T14:38:15;0.43;;;0.10;;
57247;SDS011;55809;46.618;10.764;2023-11-18T14:40:45;0.40;;;0.30;;
57247;SDS011;55809;46.618;10.764;2023-11-18T14:43:13;1.80;;;0.20;;
57247;SDS011;55809;46.618;10.764;2023-11-18T14:45:40;0.90;;;0.30;;
57247;SDS011;55809;46.618;10.764;2023-11-18T14:48:08;0.65;;;0.20;;
57247;SDS011;55809;46.618;10.764;2023-11-18T14:50:35;1.55;;;0.30;;
57247;SDS011;55809;46.618;10.764;2023-11-18T14:53:03;1.20;;;0.60;;
57247;SDS011;55809;46.618;10.764;2023-11-18T14:55:31;0.60;;;0.40;;
57247;SDS011;55809;46.618;10.764;2023-11-18T14:58:00;0.70;;;0.70;;
57247;SDS011;55809;46.618;10.764;2023-11-18T15:00:29;2.10;;;0.82;;